createdAt,value
2018-03-26T00:00:42.114Z,18.57
2018-03-26T00:03:10.401Z,18.40
2018-03-26T00:05:38.674Z,19.00
2018-03-26T00:08:06.954Z,17.70
2018-03-26T00:10:34.463Z,17.03
2018-03-26T00:13:02.662Z,18.57
2018-03-26T00:15:30.254Z,18.67
2018-03-26T00:17:59.246Z,19.60
2018-03-26T00:20:26.748Z,16.87
2018-03-26T00:22:54.244Z,18.30
2018-03-26T00:25:21.759Z,17.00
2018-03-26T00:27:50.048Z,15.77
2018-03-26T00:30:18.881Z,17.37
2018-03-26T00:32:46.407Z,17.00
2018-03-26T00:35:14.706Z,19.43
2018-03-26T00:37:42.957Z,16.63
2018-03-26T00:40:10.487Z,17.63
2018-03-26T00:42:39.264Z,17.80
2018-03-26T00:45:07.564Z,16.60
2018-03-26T00:47:35.072Z,16.50
2018-03-26T00:50:03.590Z,17.53
2018-03-26T00:52:31.110Z,17.03
2018-03-26T00:54:59.569Z,16.40
2018-03-26T00:57:29.615Z,16.53
2018-03-26T00:59:57.893Z,16.07
2018-03-26T01:02:26.169Z,19.00
2018-03-26T01:04:54.433Z,17.53
2018-03-26T01:07:21.959Z,17.20
2018-03-26T01:09:49.503Z,15.97
2018-03-26T01:12:16.997Z,17.00
2018-03-26T01:14:44.525Z,16.47
2018-03-26T01:17:12.777Z,16.97
2018-03-26T01:19:41.248Z,18.03
2018-03-26T01:22:08.798Z,16.03
2018-03-26T01:24:36.326Z,16.73
2018-03-26T01:27:03.827Z,16.43
2018-03-26T01:29:31.361Z,16.33
2018-03-26T01:31:58.889Z,15.83
2018-03-26T01:34:27.295Z,17.13
2018-03-26T01:36:54.791Z,17.57
2018-03-26T01:39:22.310Z,17.30
2018-03-26T01:41:50.585Z,18.43
2018-03-26T01:44:18.867Z,17.67
2018-03-26T01:46:47.152Z,16.23
2018-03-26T01:49:16.539Z,16.27
2018-03-26T01:51:44.066Z,14.73
2018-03-26T01:54:11.560Z,17.43
2018-03-26T01:56:39.120Z,16.40
2018-03-26T01:59:07.413Z,16.17
2018-03-26T02:01:34.944Z,17.90
2018-03-26T02:04:02.499Z,15.60
2018-03-26T02:06:30.020Z,15.50
2018-03-26T02:08:58.307Z,16.37
2018-03-26T02:11:26.576Z,15.73
2018-03-26T02:13:54.858Z,15.53
2018-03-26T02:16:23.114Z,16.50
2018-03-26T02:18:51.397Z,16.07
2018-03-26T02:21:18.880Z,15.97
2018-03-26T02:23:47.198Z,16.57
2018-03-26T02:26:14.701Z,17.23
2018-03-26T02:28:42.294Z,15.90
2018-03-26T02:31:10.581Z,17.97
2018-03-26T02:33:38.941Z,16.27
2018-03-26T02:36:08.442Z,15.10
2018-03-26T02:38:36.037Z,16.20
2018-03-26T02:41:04.307Z,21.27
2018-03-26T02:43:32.604Z,17.60
2018-03-26T02:46:00.894Z,15.97
2018-03-26T02:48:30.316Z,17.13
2018-03-26T02:50:57.836Z,16.47
2018-03-26T02:53:26.230Z,17.53
2018-03-26T02:55:54.530Z,17.57
2018-03-26T02:58:22.074Z,16.93
2018-03-26T03:00:50.357Z,16.43
2018-03-26T03:03:20.429Z,15.70
2018-03-26T03:05:47.911Z,17.40
2018-03-26T03:08:15.432Z,16.80
2018-03-26T03:10:43.053Z,18.30
2018-03-26T03:13:10.570Z,17.97
2018-03-26T03:15:38.087Z,16.47
2018-03-26T03:18:06.345Z,16.80
2018-03-26T03:20:33.858Z,17.13
2018-03-26T03:23:01.366Z,17.10
2018-03-26T03:25:29.820Z,16.60
2018-03-26T03:27:57.477Z,16.97
2018-03-26T03:30:25.551Z,17.63
2018-03-26T03:32:53.045Z,16.47
2018-03-26T03:35:20.545Z,18.20
2018-03-26T03:37:48.825Z,17.70
2018-03-26T03:40:16.334Z,18.73
2018-03-26T03:42:43.848Z,18.17
2018-03-26T03:45:11.374Z,17.90
2018-03-26T03:47:39.058Z,19.40
2018-03-26T03:50:06.555Z,19.27
2018-03-26T03:52:34.814Z,18.70
2018-03-26T03:55:03.110Z,20.30
2018-03-26T03:57:31.385Z,20.37
2018-03-26T03:59:58.892Z,20.83
2018-03-26T04:02:26.386Z,20.70
2018-03-26T04:04:53.906Z,18.07
2018-03-26T04:07:21.407Z,20.57
2018-03-26T04:09:48.986Z,19.37
2018-03-26T04:12:16.506Z,19.50
2018-03-26T04:14:44.004Z,19.47
2018-03-26T04:17:11.519Z,20.80
2018-03-26T04:19:39.018Z,21.17
2018-03-26T04:22:06.536Z,21.07
2018-03-26T04:24:35.314Z,19.03
2018-03-26T04:27:03.627Z,20.63
2018-03-26T04:29:32.620Z,20.50
2018-03-26T04:32:00.747Z,19.90
2018-03-26T04:34:28.260Z,21.33
2018-03-26T04:36:55.770Z,20.23
2018-03-26T04:39:23.272Z,19.77
2018-03-26T04:41:51.589Z,19.40
2018-03-26T04:44:19.094Z,20.97
2018-03-26T04:46:46.707Z,18.40
2018-03-26T04:49:14.218Z,18.93
2018-03-26T04:51:43.299Z,20.60
2018-03-26T04:54:10.848Z,21.03
2018-03-26T04:56:38.366Z,21.20
2018-03-26T04:59:06.632Z,20.50
2018-03-26T05:01:34.136Z,19.47
2018-03-26T05:04:01.659Z,21.30
2018-03-26T05:06:29.169Z,20.73
2018-03-26T05:08:56.680Z,21.20
2018-03-26T05:11:24.171Z,20.27
2018-03-26T05:13:52.534Z,21.00
2018-03-26T05:16:20.052Z,25.60
2018-03-26T05:18:47.613Z,22.63
2018-03-26T05:21:15.169Z,21.63
2018-03-26T05:23:42.721Z,22.07
2018-03-26T05:26:10.377Z,21.23
2018-03-26T05:28:37.949Z,22.10
2018-03-26T05:31:05.531Z,21.60
2018-03-26T05:33:32.978Z,20.33
2018-03-26T05:36:00.503Z,21.40
2018-03-26T05:38:28.791Z,20.33
2018-03-26T05:40:57.111Z,20.67
2018-03-26T05:43:26.155Z,22.60
2018-03-26T05:45:53.655Z,19.40
2018-03-26T05:48:21.932Z,19.57
2018-03-26T05:50:50.208Z,18.57
2018-03-26T05:53:18.467Z,19.83
2018-03-26T05:55:45.973Z,19.50
2018-03-26T05:58:13.526Z,18.17
2018-03-26T06:00:41.829Z,19.60
2018-03-26T06:03:10.308Z,18.60
2018-03-26T06:05:37.820Z,19.47
2018-03-26T06:08:05.312Z,18.13
2018-03-26T06:10:33.593Z,17.20
2018-03-26T06:13:01.871Z,18.20
2018-03-26T06:15:30.232Z,19.43
2018-03-26T06:17:57.761Z,21.27
2018-03-26T06:20:25.979Z,18.97
2018-03-26T06:22:53.559Z,19.70
2018-03-26T06:25:21.836Z,18.17
2018-03-26T06:27:50.132Z,19.83
2018-03-26T06:30:18.419Z,20.83
2018-03-26T06:32:47.291Z,19.97
2018-03-26T06:35:14.802Z,20.40
2018-03-26T06:37:42.303Z,18.47
2018-03-26T06:40:09.881Z,20.57
2018-03-26T06:42:38.154Z,16.50
2018-03-26T06:45:05.714Z,18.10
2018-03-26T06:47:33.261Z,17.70
2018-03-26T06:50:00.990Z,18.57
2018-03-26T06:52:28.521Z,18.70
2018-03-26T06:54:56.009Z,19.10
2018-03-26T06:57:23.779Z,17.30
2018-03-26T06:59:52.124Z,16.37
2018-03-26T07:02:19.652Z,18.10
2018-03-26T07:04:47.170Z,16.90
2018-03-26T07:07:15.481Z,15.90
2018-03-26T07:09:42.990Z,14.90
2018-03-26T07:12:10.817Z,16.40
2018-03-26T07:14:38.591Z,18.30
2018-03-26T07:17:06.120Z,15.20
2018-03-26T07:19:34.412Z,16.97
2018-03-26T07:22:02.969Z,16.50
2018-03-26T07:24:31.274Z,17.87
2018-03-26T07:26:59.734Z,18.50
2018-03-26T07:29:27.354Z,18.90
2018-03-26T07:31:54.894Z,16.50
2018-03-26T07:34:22.439Z,16.53
2018-03-26T07:36:50.749Z,17.97
2018-03-26T07:39:19.022Z,19.03
2018-03-26T07:41:47.326Z,18.83
2018-03-26T07:44:14.841Z,17.33
2018-03-26T07:46:42.368Z,18.00
2018-03-26T07:49:10.048Z,18.37
2018-03-26T07:51:37.636Z,18.57
2018-03-26T07:54:05.899Z,19.40
2018-03-26T07:56:33.409Z,21.60
2018-03-26T07:59:00.935Z,19.27
2018-03-26T08:01:28.461Z,19.17
2018-03-26T08:03:56.610Z,19.87
2018-03-26T08:06:26.013Z,20.27
2018-03-26T08:08:53.540Z,21.17
2018-03-26T08:11:21.154Z,19.00
2018-03-26T08:13:49.731Z,19.50
2018-03-26T08:16:17.294Z,19.60
2018-03-26T08:18:45.564Z,19.17
2018-03-26T08:21:14.970Z,19.60
2018-03-26T08:23:43.307Z,18.90
2018-03-26T08:26:10.792Z,18.40
2018-03-26T08:28:38.294Z,20.47
2018-03-26T08:31:06.720Z,20.67
2018-03-26T08:33:34.234Z,19.77
2018-03-26T08:36:02.518Z,20.70
2018-03-26T08:38:30.164Z,18.73
2018-03-26T08:40:57.690Z,21.40
2018-03-26T08:43:25.206Z,22.77
2018-03-26T08:45:53.452Z,19.90
2018-03-26T08:48:21.174Z,20.00
2018-03-26T08:50:48.661Z,20.07
2018-03-26T08:53:16.221Z,21.27
2018-03-26T08:55:43.740Z,20.73
2018-03-26T08:58:12.242Z,22.17
2018-03-26T09:00:39.747Z,20.87
2018-03-26T09:03:07.306Z,21.33
2018-03-26T09:05:34.849Z,21.43
2018-03-26T09:08:02.447Z,22.57
2018-03-26T09:10:30.014Z,19.30
2018-03-26T09:12:57.548Z,21.53
2018-03-26T09:15:25.172Z,20.70
2018-03-26T09:17:53.449Z,21.63
2018-03-26T09:20:21.717Z,22.07
2018-03-26T09:22:49.338Z,21.40
2018-03-26T09:25:17.758Z,21.40
2018-03-26T09:27:46.074Z,20.80
2018-03-26T09:30:14.386Z,22.10
2018-03-26T09:32:42.912Z,21.17
2018-03-26T09:35:10.431Z,23.37
2018-03-26T09:37:38.787Z,23.13
2018-03-26T09:40:07.261Z,22.20
2018-03-26T09:42:35.894Z,24.20
2018-03-26T09:45:03.412Z,21.60
2018-03-26T09:47:31.694Z,23.60
2018-03-26T09:49:59.962Z,24.07
2018-03-26T09:52:27.477Z,23.40
2018-03-26T09:54:55.182Z,25.00
2018-03-26T09:57:22.705Z,23.50
2018-03-26T09:59:50.210Z,23.37
2018-03-26T10:02:19.252Z,23.93
2018-03-26T10:04:47.543Z,24.47
2018-03-26T10:07:15.140Z,24.40
2018-03-26T10:09:43.169Z,25.90
2018-03-26T10:12:11.842Z,25.33
2018-03-26T10:14:40.976Z,24.20
2018-03-26T10:17:08.516Z,27.13
2018-03-26T10:19:36.029Z,27.20
2018-03-26T10:22:03.562Z,25.93
2018-03-26T10:24:31.688Z,25.03
2018-03-26T10:26:59.636Z,26.07
2018-03-26T10:29:27.152Z,26.70
2018-03-26T10:31:54.736Z,26.73
2018-03-26T10:34:23.062Z,25.13
2018-03-26T10:36:51.498Z,29.20
2018-03-26T10:39:19.816Z,25.33
2018-03-26T10:41:47.334Z,28.13
2018-03-26T10:44:15.623Z,26.80
2018-03-26T10:46:43.982Z,26.23
2018-03-26T10:49:11.520Z,32.00
2018-03-26T10:51:39.010Z,27.67
2018-03-26T10:54:08.262Z,26.67
2018-03-26T10:56:35.770Z,25.47
2018-03-26T10:59:03.288Z,28.37
2018-03-26T11:01:30.796Z,26.23
2018-03-26T11:03:58.295Z,27.30
2018-03-26T11:06:25.834Z,28.93
2018-03-26T11:08:53.453Z,27.17
2018-03-26T11:11:20.953Z,27.30
2018-03-26T11:13:49.211Z,27.00
2018-03-26T11:16:16.859Z,28.30
2018-03-26T11:18:44.234Z,25.30
2018-03-26T11:21:12.456Z,27.40
2018-03-26T11:23:40.836Z,25.93
2018-03-26T11:26:09.103Z,26.23
2018-03-26T11:28:36.630Z,26.60
2018-03-26T11:31:04.140Z,27.30
2018-03-26T11:33:32.414Z,27.10
2018-03-26T11:35:59.922Z,23.73
2018-03-26T11:38:27.414Z,24.03
2018-03-26T11:40:54.916Z,22.60
2018-03-26T11:43:23.204Z,21.50
2018-03-26T11:45:51.486Z,22.77
2018-03-26T11:48:19.082Z,26.40
2018-03-26T11:50:46.699Z,21.17
2018-03-26T11:53:15.032Z,17.47
2018-03-26T11:55:42.552Z,18.57
2018-03-26T11:58:10.844Z,23.30
2018-03-26T12:00:39.252Z,19.07
2018-03-26T12:03:06.860Z,17.70
2018-03-26T12:05:34.488Z,19.00
2018-03-26T12:08:02.081Z,20.77
2018-03-26T12:10:29.601Z,20.50
2018-03-26T12:12:58.523Z,18.60
2018-03-26T12:15:26.171Z,16.77
2018-03-26T12:17:53.702Z,20.00
2018-03-26T12:20:33.765Z,19.13
2018-03-26T12:23:13.252Z,18.77
2018-03-26T12:25:40.761Z,19.23
2018-03-26T12:28:21.048Z,21.37
2018-03-26T12:30:48.576Z,18.47
2018-03-26T12:33:16.927Z,20.40
2018-03-26T12:36:00.425Z,21.17
2018-03-26T12:38:27.912Z,22.80
2018-03-26T12:40:56.556Z,21.30
2018-03-26T12:43:24.079Z,21.20
2018-03-26T12:46:04.277Z,19.53
2018-03-26T12:48:31.773Z,21.17
2018-03-26T12:51:11.222Z,19.97
2018-03-26T12:53:39.628Z,17.60
2018-03-26T12:56:08.867Z,18.30
2018-03-26T12:58:44.250Z,33.33
2018-03-26T13:01:24.382Z,16.03
2018-03-26T13:03:51.946Z,16.37
2018-03-26T13:06:19.455Z,16.50
2018-03-26T13:08:47.731Z,14.60
2018-03-26T13:11:16.661Z,12.93
2018-03-26T13:13:44.235Z,14.73
2018-03-26T13:16:13.378Z,14.40
2018-03-26T13:18:41.656Z,12.47
2018-03-26T13:21:10.426Z,12.57
2018-03-26T13:23:37.971Z,12.77
2018-03-26T13:26:05.578Z,12.93
2018-03-26T13:28:33.098Z,13.20
2018-03-26T13:31:00.654Z,12.33
2018-03-26T13:33:28.398Z,13.90
2018-03-26T13:35:56.736Z,13.20
2018-03-26T13:38:24.355Z,14.87
2018-03-26T13:40:52.006Z,12.70
2018-03-26T13:43:20.310Z,15.30
2018-03-26T13:45:47.948Z,13.50
2018-03-26T13:48:16.271Z,15.37
2018-03-26T13:50:43.772Z,16.70
2018-03-26T13:53:11.302Z,18.07
2018-03-26T13:55:38.792Z,17.60
2018-03-26T13:58:06.286Z,16.90
2018-03-26T14:00:34.875Z,16.27
2018-03-26T14:03:04.021Z,14.73
2018-03-26T14:05:31.498Z,11.97
2018-03-26T14:07:59.083Z,12.20
2018-03-26T14:10:38.372Z,11.93
2018-03-26T14:13:17.815Z,10.60
2018-03-26T14:15:57.037Z,10.23
2018-03-26T14:18:24.709Z,11.50
2018-03-26T14:20:52.962Z,12.30
2018-03-26T14:23:21.252Z,12.77
2018-03-26T14:25:48.775Z,12.97
2018-03-26T14:28:16.321Z,22.83
2018-03-26T14:30:43.832Z,10.70
2018-03-26T14:33:12.112Z,11.60
2018-03-26T14:35:41.264Z,12.20
2018-03-26T14:38:08.759Z,11.10
2018-03-26T14:40:37.617Z,10.80
2018-03-26T14:43:05.141Z,10.47
2018-03-26T14:45:32.733Z,22.83
2018-03-26T14:48:00.747Z,12.13
2018-03-26T14:50:28.302Z,9.30
2018-03-26T14:52:55.821Z,9.00
2018-03-26T14:55:23.568Z,13.93
2018-03-26T14:57:51.823Z,9.23
2018-03-26T15:00:19.334Z,7.63
2018-03-26T15:02:47.214Z,7.57
2018-03-26T15:05:14.742Z,7.07
2018-03-26T15:07:43.014Z,7.40
2018-03-26T15:10:10.525Z,6.90
2018-03-26T15:12:38.088Z,7.27
2018-03-26T15:15:05.696Z,7.33
2018-03-26T15:17:34.009Z,7.90
2018-03-26T15:20:02.348Z,9.90
2018-03-26T15:22:30.465Z,7.67
2018-03-26T15:24:58.720Z,6.23
2018-03-26T15:27:26.278Z,6.10
2018-03-26T15:29:53.791Z,6.00
2018-03-26T15:32:21.403Z,5.80
2018-03-26T15:34:48.918Z,5.50
2018-03-26T15:37:16.433Z,5.13
2018-03-26T15:39:44.861Z,4.70
2018-03-26T15:42:12.380Z,5.13
2018-03-26T15:44:39.894Z,5.90
2018-03-26T15:47:07.466Z,5.20
2018-03-26T15:49:35.017Z,5.50
2018-03-26T15:52:02.538Z,5.63
2018-03-26T15:54:30.084Z,5.90
2018-03-26T15:56:57.621Z,6.03
2018-03-26T15:59:26.233Z,4.60
2018-03-26T16:01:53.507Z,5.40
2018-03-26T16:04:21.048Z,4.60
2018-03-26T16:06:48.644Z,4.87
2018-03-26T16:09:16.300Z,4.37
2018-03-26T16:11:43.896Z,5.50
2018-03-26T16:14:12.178Z,6.00
2018-03-26T16:16:40.452Z,6.23
2018-03-26T16:19:08.770Z,4.90
2018-03-26T16:21:36.265Z,4.23
2018-03-26T16:24:03.824Z,5.50
2018-03-26T16:26:31.320Z,6.17
2018-03-26T16:28:59.593Z,5.13
2018-03-26T16:31:27.112Z,4.57
2018-03-26T16:33:54.646Z,5.80
2018-03-26T16:36:23.222Z,5.93
2018-03-26T16:38:51.512Z,5.70
2018-03-26T16:41:31.712Z,5.80
2018-03-26T16:43:59.626Z,4.93
2018-03-26T16:46:27.970Z,5.20
2018-03-26T16:48:55.567Z,5.40
2018-03-26T16:51:23.084Z,5.23
2018-03-26T16:53:50.600Z,5.77
2018-03-26T16:56:18.194Z,6.10
2018-03-26T16:58:45.725Z,5.47
2018-03-26T17:01:14.111Z,5.97
2018-03-26T17:03:42.599Z,5.10
2018-03-26T17:06:10.986Z,5.17
2018-03-26T17:08:39.308Z,5.70
2018-03-26T17:11:06.802Z,4.57
2018-03-26T17:13:34.320Z,4.53
2018-03-26T17:16:01.900Z,5.43
2018-03-26T17:18:29.420Z,5.30
2018-03-26T17:20:57.700Z,4.43
2018-03-26T17:23:26.370Z,5.50
2018-03-26T17:25:53.854Z,4.47
2018-03-26T17:28:21.474Z,5.00
2018-03-26T17:30:49.101Z,4.90
2018-03-26T17:33:16.756Z,5.30
2018-03-26T17:35:45.067Z,4.60
2018-03-26T17:38:12.576Z,5.53
2018-03-26T17:40:40.946Z,5.50
2018-03-26T17:43:08.589Z,4.97
2018-03-26T17:45:36.079Z,5.80
2018-03-26T17:48:03.707Z,5.23
2018-03-26T17:50:31.224Z,4.60
2018-03-26T17:52:59.564Z,5.00
2018-03-26T17:55:27.231Z,5.30
2018-03-26T17:57:55.379Z,5.80
2018-03-26T18:00:22.942Z,4.90
2018-03-26T18:02:50.690Z,5.90
2018-03-26T18:05:19.435Z,6.50
2018-03-26T18:07:46.915Z,5.67
2018-03-26T18:10:14.512Z,4.87
2018-03-26T18:12:41.986Z,5.70
2018-03-26T18:15:10.280Z,4.77
2018-03-26T18:17:37.791Z,4.80
2018-03-26T18:20:05.608Z,5.57
2018-03-26T18:22:33.128Z,4.50
2018-03-26T18:25:00.668Z,4.30
2018-03-26T18:27:28.410Z,3.93
2018-03-26T18:29:56.117Z,4.43
2018-03-26T18:32:23.610Z,4.30
2018-03-26T18:34:51.167Z,5.20
2018-03-26T18:37:18.688Z,6.07
2018-03-26T18:39:46.218Z,4.77
2018-03-26T18:42:13.892Z,5.00
2018-03-26T18:44:42.200Z,5.87
2018-03-26T18:47:11.154Z,4.60
2018-03-26T18:49:39.748Z,5.13
2018-03-26T18:52:08.011Z,5.20
2018-03-26T18:54:36.305Z,4.87
2018-03-26T18:57:04.644Z,5.07
2018-03-26T18:59:32.758Z,5.17
2018-03-26T19:02:01.028Z,5.47
2018-03-26T19:04:28.504Z,5.23
2018-03-26T19:06:56.794Z,4.90
2018-03-26T19:09:25.602Z,5.20
2018-03-26T19:11:53.151Z,4.60
2018-03-26T19:14:21.432Z,4.27
2018-03-26T19:16:49.714Z,4.33
2018-03-26T19:19:17.974Z,4.93
2018-03-26T19:21:45.498Z,4.77
2018-03-26T19:24:13.278Z,4.90
2018-03-26T19:26:40.805Z,5.10
2018-03-26T19:29:08.796Z,5.97
2018-03-26T19:31:36.311Z,5.70
2018-03-26T19:34:03.851Z,5.33
2018-03-26T19:36:31.377Z,5.37
2018-03-26T19:38:58.944Z,5.13
2018-03-26T19:41:26.495Z,4.73
2018-03-26T19:43:54.386Z,5.70
2018-03-26T19:46:21.936Z,5.00
2018-03-26T19:48:49.438Z,5.80
2018-03-26T19:51:16.970Z,5.70
2018-03-26T19:53:45.876Z,5.37
2018-03-26T19:56:13.464Z,6.20
2018-03-26T19:58:40.973Z,4.70
2018-03-26T20:01:08.520Z,5.53
2018-03-26T20:03:36.793Z,4.70
2018-03-26T20:06:04.370Z,4.37
2018-03-26T20:08:32.680Z,5.20
2018-03-26T20:11:00.505Z,4.50
2018-03-26T20:13:28.806Z,6.20
2018-03-26T20:15:57.098Z,5.50
2018-03-26T20:18:24.721Z,5.23
2018-03-26T20:20:52.220Z,6.00
2018-03-26T20:23:20.527Z,4.73
2018-03-26T20:25:49.314Z,5.97
2018-03-26T20:28:16.888Z,5.90
2018-03-26T20:30:44.396Z,5.47
2018-03-26T20:33:11.962Z,5.70
2018-03-26T20:35:39.479Z,6.53
2018-03-26T20:38:08.224Z,6.70
2018-03-26T20:40:36.976Z,5.70
2018-03-26T20:43:04.487Z,6.33
2018-03-26T20:45:32.746Z,6.00
2018-03-26T20:48:00.262Z,5.60
2018-03-26T20:50:27.783Z,5.53
2018-03-26T20:52:55.378Z,6.73
2018-03-26T20:55:24.294Z,6.07
2018-03-26T20:57:51.830Z,4.97
2018-03-26T21:00:19.387Z,6.10
2018-03-26T21:02:47.715Z,7.43
2018-03-26T21:05:15.261Z,6.47
2018-03-26T21:07:42.805Z,6.03
2018-03-26T21:10:11.184Z,6.17
2018-03-26T21:12:39.806Z,6.77
2018-03-26T21:15:07.307Z,5.20
2018-03-26T21:17:34.911Z,6.20
2018-03-26T21:20:02.421Z,5.73
2018-03-26T21:22:29.937Z,4.93
2018-03-26T21:24:57.505Z,6.37
2018-03-26T21:27:26.352Z,6.20
2018-03-26T21:29:54.827Z,6.17
2018-03-26T21:32:22.810Z,7.17
2018-03-26T21:34:51.392Z,6.87
2018-03-26T21:37:19.593Z,6.60
2018-03-26T21:39:47.151Z,7.23
2018-03-26T21:42:14.709Z,7.23
2018-03-26T21:44:42.289Z,9.83
2018-03-26T21:47:09.886Z,14.97
2018-03-26T21:49:37.901Z,6.70
2018-03-26T21:52:05.425Z,6.17
2018-03-26T21:54:32.957Z,6.30
2018-03-26T21:57:02.386Z,7.60
2018-03-26T21:59:30.888Z,5.80
2018-03-26T22:01:58.567Z,6.47
2018-03-26T22:04:26.125Z,6.03
2018-03-26T22:06:54.313Z,5.17
2018-03-26T22:09:21.821Z,6.13
2018-03-26T22:11:49.326Z,6.10
2018-03-26T22:14:16.943Z,6.20
2018-03-26T22:16:45.216Z,6.53
2018-03-26T22:19:14.661Z,5.70
2018-03-26T22:21:42.275Z,6.30
2018-03-26T22:24:10.608Z,5.60
2018-03-26T22:26:39.302Z,5.30
2018-03-26T22:29:07.564Z,5.70
2018-03-26T22:31:35.541Z,5.13
2018-03-26T22:34:03.039Z,6.13
2018-03-26T22:36:30.585Z,6.77
2018-03-26T22:38:58.907Z,5.37
2018-03-26T22:41:26.436Z,5.20
2018-03-26T22:43:54.872Z,5.30
2018-03-26T22:46:22.370Z,5.50
2018-03-26T22:48:49.914Z,6.13
2018-03-26T22:51:18.433Z,5.87
2018-03-26T22:53:48.329Z,5.27
2018-03-26T22:56:16.670Z,5.10
2018-03-26T22:58:44.172Z,5.30
2018-03-26T23:01:12.562Z,15.17
2018-03-26T23:03:40.130Z,6.30
2018-03-26T23:06:08.475Z,6.10
2018-03-26T23:08:35.970Z,5.50
2018-03-26T23:11:04.283Z,6.43
2018-03-26T23:13:31.796Z,5.80
2018-03-26T23:16:00.093Z,6.10
2018-03-26T23:18:28.367Z,5.27
2018-03-26T23:20:56.662Z,5.67
2018-03-26T23:23:24.934Z,5.33
2018-03-26T23:25:53.218Z,5.50
2018-03-26T23:28:21.496Z,5.40
2018-03-26T23:30:49.755Z,5.47
2018-03-26T23:33:17.220Z,6.43
2018-03-26T23:35:44.792Z,5.87
2018-03-26T23:38:12.306Z,5.10
2018-03-26T23:40:39.792Z,4.93
2018-03-26T23:43:07.274Z,5.20
2018-03-26T23:45:34.976Z,5.77
2018-03-26T23:48:02.467Z,6.03
2018-03-26T23:50:30.825Z,5.00
2018-03-26T23:52:58.349Z,5.13
2018-03-26T23:55:26.011Z,5.43
2018-03-26T23:57:53.498Z,5.37
